> Flugplatz > 
Stacks Image 3
Aktuelle METAR Daten (Memmingen, Friedrichshafen, Laupheim):
2017/11/22 08:50 EDJA 222050Z 19003KT CAVOK 02/M00 Q1012
2017/11/23 01:20 EDNY 230120Z AUTO 06002KT 9999 M02/M02 Q1012
2017/11/23 01:20 ETHL 230120Z 11001KT 9999 FEW250 M01/M02 Q1011 BLU+
Sicherheits- und Servicehinweise:

Bitte achten Sie beim Anflug auf mögliche Fall­schirm­springer auf der Nordseite des Platzes, kontaktieren Sie zur Sicherheit den Flugleiter auf Leutkirch INFO 122,875.

Zollabfertigung:
für Ein- und Ausflug bei Voranmeldung mindestens 3 Stunden, nur Personenverkehr – keine Warenabfertigung.

Günstig Tanken:
AvGas 100LL · Jet A1l

Aktuelles:

Winterflugbetrieb:
vom 01.11.2017 bis 14.03.2018.
Täglich 10:00-17:00 (loc)
So+HOL 10:30-17:00 (loc)
Closed 25.12.17 + 01.01.18

Weitere Informationen finden Sie in unserem Newsbereich.

Nutzen Sie unsere Online-Anmeldung zur Zoll- und Passkontrolle.